Stephen M. White — WCU6542 — position and weather

sailwx.info

Track history (hours):
 
Tides and Currents Weather Stations Pressure Air Temp Water Temp Dewpoint Dewpoint Depression Visibility Wind Speed Wind Dir Waves Ship Positions

Stephen M. White

Owner: LOS ANGELES, CITY OF, SAN PEDRO, CA. More information available from US FCC via Universal Licensing System and Coast Guard Vessel Documentation Center.

Last reported at 2017-Mar-07 13:25 UTC. Time now 2017-Mar-27 10:46 UTC.
Position N 33°46' W 118°16'.
Warning: this ship's position is 19 days out of date.

Length 13 m.

Type: Other ship. MMSI: 367049470.

Date/timePositionNaut miles runAvg speedWind from/ knotsBaromVisibWave heightAir tempDewpointWater temp
2017-Mar-07 13:25N 33°46' W 118°16'0 0.0
2017-Mar-07 12:22N 33°46' W 118°16'0 0.0
2017-Mar-07 09:24N 33°46' W 118°16'0 0.0
2017-Mar-07 08:33N 33°46' W 118°16'0 0.0
2017-Mar-07 07:28N 33°46' W 118°16'2 0.0
2017-Mar-05 04:32N 33°43' W 118°16'0 0.0
2017-Mar-05 03:33N 33°43' W 118°16'0 0.0
2017-Mar-05 02:28N 33°43' W 118°16'0 0.0
2017-Mar-05 01:33N 33°43' W 118°16'0 0.0
2017-Mar-05 00:33N 33°43' W 118°16'0 0.0
2017-Mar-04 23:33N 33°43' W 118°16'0 0.0
2017-Mar-04 22:33N 33°43' W 118°16'0 0.0
2017-Mar-04 21:25N 33°43' W 118°16'0 0.0
2017-Mar-04 20:32N 33°43' W 118°16'0 0.0
2017-Mar-04 19:33N 33°43' W 118°16'0 0.0
2017-Mar-04 17:33N 33°43' W 118°16'0 0.0
2017-Mar-04 16:33N 33°43' W 118°16'0 0.0
2017-Mar-04 15:33N 33°43' W 118°16'0 0.0
2017-Mar-04 14:33N 33°43' W 118°16'0 0.0
2017-Mar-04 13:33N 33°43' W 118°16'0 0.0
2017-Mar-04 12:33N 33°43' W 118°16'0 0.0
2017-Mar-04 11:31N 33°43' W 118°16'0 0.0
2017-Mar-04 10:33N 33°43' W 118°16'0 0.0
2017-Mar-04 09:33N 33°43' W 118°16'0 0.0
2017-Mar-04 08:33N 33°43' W 118°16'0 0.0
2017-Mar-04 07:29N 33°43' W 118°16'0 0.0
2017-Mar-04 06:34N 33°43' W 118°16'0 0.0
2017-Mar-04 05:29N 33°43' W 118°16'0 0.0
2017-Mar-04 04:33N 33°43' W 118°16'0 0.0
2017-Mar-04 03:31N 33°43' W 118°16'0 0.0
2017-Mar-04 00:03N 33°43' W 118°16'3 0.6
2017-Mar-03 19:34N 33°42' W 118°14'3 2.5
2017-Mar-03 18:33N 33°43' W 118°16'0 0.0
2017-Mar-03 17:31N 33°43' W 118°16'0 0.0
2017-Mar-03 16:33N 33°43' W 118°16'0 0.0
2017-Mar-03 15:33N 33°43' W 118°16'0 0.0
2017-Mar-03 14:33N 33°43' W 118°16'0 0.0
2017-Mar-03 13:33N 33°43' W 118°16'0 0.5
2017-Mar-03 12:33N 33°43' W 118°16'0 0.5
2017-Mar-03 11:32N 33°43' W 118°16'0 0.0
2017-Mar-03 10:33N 33°43' W 118°16'0 0.0
2017-Mar-03 09:32N 33°43' W 118°16'0 0.0
2017-Mar-03 08:33N 33°43' W 118°16'0 0.0
2017-Mar-03 07:33N 33°43' W 118°16'0 0.0
2017-Mar-03 06:33N 33°43' W 118°16'0 0.0
2017-Mar-03 05:33N 33°43' W 118°16'0 0.0
2017-Mar-03 01:05N 33°43' W 118°16'0 0.0
2017-Mar-02 23:33N 33°43' W 118°16'0 0.4
2017-Mar-02 22:31N 33°43' W 118°16'0 0.0
2017-Mar-02 04:18N 33°43' W 118°16'1 1.5
2017-Mar-02 03:30N 33°43' W 118°15'1 0.6
2017-Mar-02 01:09N 33°42' W 118°14'3 1.0
2017-Mar-01 22:30N 33°43' W 118°16'1 0.1
2017-Mar-01 18:19N 33°44' W 118°17'1 1.2
2017-Mar-01 17:32N 33°45' W 118°17'1 1.5
2017-Mar-01 16:31N 33°43' W 118°16'0 0.0
2017-Mar-01 15:32N 33°43' W 118°16'0 0.0
2017-Mar-01 14:32N 33°43' W 118°16'1 1.5
2017-Mar-01 13:34N 33°42' W 118°15'1 1.5
2017-Mar-01 12:33N 33°43' W 118°16'0 0.0
2017-Mar-01 11:33N 33°43' W 118°16'0 0.0
2017-Mar-01 09:33N 33°43' W 118°16'0 0.0
2017-Mar-01 08:29N 33°43' W 118°16'  
Track history (hours):
 
Tides and Currents Weather Stations Pressure Air Temp Water Temp Dewpoint Dewpoint Depression Visibility Wind Speed Wind Dir Waves Ship Positions

Stephen M. White

Owner: LOS ANGELES, CITY OF, SAN PEDRO, CA. More information available from US FCC via Universal Licensing System and Coast Guard Vessel Documentation Center.

Last reported at 2017-Mar-07 13:25 UTC. Time now 2017-Mar-27 10:46 UTC.
Position N 33°46' W 118°16'.
Warning: this ship's position is 19 days out of date.

Length 13 m.

Type: Other ship. MMSI: 367049470.

Date/timePositionNaut miles runAvg speedWind from/ knotsBaromVisibWave heightAir tempDewpointWater temp
2017-Mar-07 13:25N 33°46' W 118°16'0 0.0
2017-Mar-07 12:22N 33°46' W 118°16'0 0.0
2017-Mar-07 09:24N 33°46' W 118°16'0 0.0
2017-Mar-07 08:33N 33°46' W 118°16'0 0.0
2017-Mar-07 07:28N 33°46' W 118°16'2 0.0
2017-Mar-05 04:32N 33°43' W 118°16'0 0.0
2017-Mar-05 03:33N 33°43' W 118°16'0 0.0
2017-Mar-05 02:28N 33°43' W 118°16'0 0.0
2017-Mar-05 01:33N 33°43' W 118°16'0 0.0
2017-Mar-05 00:33N 33°43' W 118°16'0 0.0
2017-Mar-04 23:33N 33°43' W 118°16'0 0.0
2017-Mar-04 22:33N 33°43' W 118°16'0 0.0
2017-Mar-04 21:25N 33°43' W 118°16'0 0.0
2017-Mar-04 20:32N 33°43' W 118°16'0 0.0
2017-Mar-04 19:33N 33°43' W 118°16'0 0.0
2017-Mar-04 17:33N 33°43' W 118°16'0 0.0
2017-Mar-04 16:33N 33°43' W 118°16'0 0.0
2017-Mar-04 15:33N 33°43' W 118°16'0 0.0
2017-Mar-04 14:33N 33°43' W 118°16'0 0.0
2017-Mar-04 13:33N 33°43' W 118°16'0 0.0
2017-Mar-04 12:33N 33°43' W 118°16'0 0.0
2017-Mar-04 11:31N 33°43' W 118°16'0 0.0
2017-Mar-04 10:33N 33°43' W 118°16'0 0.0
2017-Mar-04 09:33N 33°43' W 118°16'0 0.0
2017-Mar-04 08:33N 33°43' W 118°16'0 0.0
2017-Mar-04 07:29N 33°43' W 118°16'0 0.0
2017-Mar-04 06:34N 33°43' W 118°16'0 0.0
2017-Mar-04 05:29N 33°43' W 118°16'0 0.0
2017-Mar-04 04:33N 33°43' W 118°16'0 0.0
2017-Mar-04 03:31N 33°43' W 118°16'0 0.0
2017-Mar-04 00:03N 33°43' W 118°16'3 0.6
2017-Mar-03 19:34N 33°42' W 118°14'3 2.5
2017-Mar-03 18:33N 33°43' W 118°16'0 0.0
2017-Mar-03 17:31N 33°43' W 118°16'0 0.0
2017-Mar-03 16:33N 33°43' W 118°16'0 0.0
2017-Mar-03 15:33N 33°43' W 118°16'0 0.0
2017-Mar-03 14:33N 33°43' W 118°16'0 0.0
2017-Mar-03 13:33N 33°43' W 118°16'0 0.5
2017-Mar-03 12:33N 33°43' W 118°16'0 0.5
2017-Mar-03 11:32N 33°43' W 118°16'0 0.0
2017-Mar-03 10:33N 33°43' W 118°16'0 0.0
2017-Mar-03 09:32N 33°43' W 118°16'0 0.0
2017-Mar-03 08:33N 33°43' W 118°16'0 0.0
2017-Mar-03 07:33N 33°43' W 118°16'0 0.0
2017-Mar-03 06:33N 33°43' W 118°16'0 0.0
2017-Mar-03 05:33N 33°43' W 118°16'0 0.0
2017-Mar-03 01:05N 33°43' W 118°16'0 0.0
2017-Mar-02 23:33N 33°43' W 118°16'0 0.4
2017-Mar-02 22:31N 33°43' W 118°16'0 0.0
2017-Mar-02 04:18N 33°43' W 118°16'1 1.5
2017-Mar-02 03:30N 33°43' W 118°15'1 0.6
2017-Mar-02 01:09N 33°42' W 118°14'3 1.0
2017-Mar-01 22:30N 33°43' W 118°16'1 0.1
2017-Mar-01 18:19N 33°44' W 118°17'1 1.2
2017-Mar-01 17:32N 33°45' W 118°17'1 1.5
2017-Mar-01 16:31N 33°43' W 118°16'0 0.0
2017-Mar-01 15:32N 33°43' W 118°16'0 0.0
2017-Mar-01 14:32N 33°43' W 118°16'1 1.5
2017-Mar-01 13:34N 33°42' W 118°15'1 1.5
2017-Mar-01 12:33N 33°43' W 118°16'0 0.0
2017-Mar-01 11:33N 33°43' W 118°16'0 0.0
2017-Mar-01 09:33N 33°43' W 118°16'0 0.0
2017-Mar-01 08:29N 33°43' W 118°16'  

Dump ship's entire track history